Time;durP1;ratioP1;P1;durP2;ratioP2;P2;SDS_P1;SDS_P2;PMS_P1;PMS_P2;Temp;Humidity;BMP_temperature;BMP_pressure;BME280_temperature;BME280_humidity;BME280_pressure;Samples;Min_cycle;Max_cycle;Signal;HPM_P1;HPM_P2
2021/04/29 00:01:14;;;;;;;17.92;10.38;;;5.60;55.00;;;;;;5051164;28;20036;-74
2021/04/29 00:03:39;;;;;;;21.98;11.07;;;5.50;55.50;;;;;;5050949;28;20040;-74
2021/04/29 00:06:05;;;;;;;18.42;10.73;;;5.50;55.70;;;;;;5052258;28;20017;-74
2021/04/29 00:08:38;;;;;;;23.58;13.23;;;5.40;55.90;;;;;;5051042;28;20052;-74
2021/04/29 00:11:06;;;;;;;25.35;12.52;;;5.30;56.00;;;;;;5050845;28;20536;-74
2021/04/29 00:13:32;;;;;;;21.48;11.40;;;5.30;56.00;;;;;;5050816;28;20079;-74
2021/04/29 00:15:58;;;;;;;16.58;9.77;;;5.20;56.10;;;;;;5052120;28;20470;-75
2021/04/29 00:18:23;;;;;;;18.73;10.80;;;5.20;56.50;;;;;;5054205;28;20032;-74
2021/04/29 00:20:54;;;;;;;24.55;11.30;;;5.10;56.90;;;;;;5055849;28;20036;-73
2021/04/29 00:23:21;;;;;;;17.92;10.45;;;5.00;57.50;;;;;;5054357;28;20021;-74
2021/04/29 00:25:46;;;;;;;22.27;11.20;;;4.90;58.10;;;;;;5055905;28;20044;-74
2021/04/29 00:28:12;;;;;;;22.67;11.60;;;4.80;58.20;;;;;;5055617;28;20477;-74
2021/04/29 00:30:38;;;;;;;18.40;10.60;;;4.70;58.40;;;;;;5055720;28;20052;-74
2021/04/29 00:33:04;;;;;;;18.25;10.15;;;4.70;58.60;;;;;;5054339;28;20087;-73
2021/04/29 00:35:29;;;;;;;15.02;9.77;;;4.70;58.90;;;;;;5054226;28;20100;-74
2021/04/29 00:37:55;;;;;;;19.23;10.93;;;4.70;58.90;;;;;;5055505;28;20104;-74
2021/04/29 00:40:21;;;;;;;18.48;11.43;;;4.70;60.20;;;;;;5054156;28;20021;-74
2021/04/29 00:42:46;;;;;;;21.33;11.50;;;4.60;60.20;;;;;;5055408;28;20029;-74
2021/04/29 00:45:12;;;;;;;15.10;10.48;;;4.50;61.40;;;;;;5055436;28;20391;-74
2021/04/29 00:47:39;;;;;;;22.08;12.15;;;4.50;61.10;;;;;;5054110;28;20060;-74
2021/04/29 00:50:12;;;;;;;20.63;11.27;;;4.40;60.90;;;;;;5055272;28;20114;-74
2021/04/29 00:52:38;;;;;;;20.33;11.73;;;4.40;60.90;;;;;;5055342;28;20025;-74
2021/04/29 00:55:05;;;;;;;20.45;11.25;;;4.40;61.00;;;;;;5055230;28;20029;-74
2021/04/29 00:57:31;;;;;;;20.65;12.20;;;4.30;61.60;;;;;;5054372;28;20025;-74
2021/04/29 00:59:59;;;;;;;17.63;11.32;;;4.20;61.70;;;;;;5053829;28;20083;-74
2021/04/29 01:02:26;;;;;;;18.60;11.27;;;4.20;62.10;;;;;;5053812;28;20029;-74
2021/04/29 01:05:06;;;;;;;18.55;11.63;;;4.20;62.50;;;;;;5053675;28;20418;-74
2021/04/29 01:07:40;;;;;;;17.90;11.13;;;4.10;63.40;;;;;;5054975;28;20025;-74
2021/04/29 01:10:31;;;;;;;28.08;12.07;;;4.00;63.80;;;;;;5055003;28;20061;-74
2021/04/29 01:13:22;;;;;;;22.38;11.30;;;3.80;65.00;;;;;;5054296;28;20386;-74
2021/04/29 01:15:49;;;;;;;21.98;13.35;;;3.60;65.90;;;;;;5053567;28;20024;-74
2021/04/29 01:18:19;;;;;;;20.30;12.52;;;3.50;67.10;;;;;;5054782;28;20049;-73
2021/04/29 01:20:59;;;;;;;31.55;14.23;;;3.50;67.40;;;;;;5053436;28;20027;-74
2021/04/29 01:23:40;;;;;;;22.23;12.80;;;3.50;67.20;;;;;;5053442;28;20039;-73
2021/04/29 01:26:24;;;;;;;22.95;13.38;;;3.50;67.70;;;;;;5053379;28;20175;-74
2021/04/29 01:28:52;;;;;;;31.80;14.18;;;3.40;68.00;;;;;;5052490;28;20029;-73
2021/04/29 01:31:22;;;;;;;24.48;13.57;;;3.40;68.00;;;;;;5054394;28;20116;-74
2021/04/29 01:33:49;;;;;;;25.65;13.40;;;3.40;67.80;;;;;;5053427;28;20021;-73
2021/04/29 01:36:15;;;;;;;23.55;12.20;;;3.40;67.40;;;;;;5054496;28;20013;-74
2021/04/29 01:38:41;;;;;;;22.40;11.73;;;3.40;67.30;;;;;;5054289;28;20021;-73
2021/04/29 01:41:07;;;;;;;28.95;13.27;;;3.40;67.60;;;;;;5054680;28;20021;-74
2021/04/29 01:43:33;;;;;;;30.42;12.73;;;3.30;68.10;;;;;;5054313;28;20029;-73
2021/04/29 01:46:01;;;;;;;22.35;13.75;;;3.30;67.90;;;;;;5054225;28;20078;-74
2021/04/29 01:48:28;;;;;;;28.58;13.93;;;3.40;67.60;;;;;;5052948;28;20048;-74
2021/04/29 01:50:53;;;;;;;29.60;13.43;;;3.30;67.40;;;;;;5054254;28;20406;-74
2021/04/29 01:53:19;;;;;;;27.83;15.05;;;3.30;68.40;;;;;;5052668;28;20032;-74
2021/04/29 01:55:46;;;;;;;28.40;13.82;;;3.30;68.10;;;;;;5054035;28;20425;-74
2021/04/29 01:58:11;;;;;;;20.33;11.88;;;3.30;68.40;;;;;;5054141;28;20044;-74
2021/04/29 02:00:37;;;;;;;19.58;11.15;;;3.30;68.10;;;;;;5052837;28;20025;-75
2021/04/29 02:03:03;;;;;;;23.15;12.48;;;3.30;68.10;;;;;;5053993;28;20400;-74
2021/04/29 02:05:29;;;;;;;19.08;10.85;;;3.30;68.20;;;;;;5052658;28;20070;-74
2021/04/29 02:07:57;;;;;;;20.08;11.27;;;3.30;67.90;;;;;;5053801;28;20598;-74
2021/04/29 02:10:23;;;;;;;22.05;12.73;;;3.40;67.90;;;;;;5052567;28;20029;-74
2021/04/29 02:12:53;;;;;;;36.45;17.38;;;3.40;67.40;;;;;;5053736;28;20423;-73
2021/04/29 02:15:22;;;;;;;195.60;84.15;;;3.40;68.60;;;;;;5052473;28;20020;-74
2021/04/29 02:18:20;;;;;;;43.47;24.92;;;3.30;68.90;;;;;;5052439;28;20025;-74
2021/04/29 02:20:49;;;;;;;29.73;15.57;;;3.20;69.20;;;;;;5041231;28;20029;-74
2021/04/29 02:23:20;;;;;;;34.78;17.90;;;3.10;70.00;;;;;;5053842;28;20112;-74
2021/04/29 02:25:48;;;;;;;51.97;25.87;;;3.00;70.60;;;;;;5052427;28;20155;-73
2021/04/29 02:28:18;;;;;;;47.60;21.52;;;2.90;71.10;;;;;;5053421;28;20463;-74
2021/04/29 02:30:45;;;;;;;43.28;22.38;;;2.90;72.30;;;;;;5053281;28;20044;-74
2021/04/29 02:33:11;;;;;;;75.18;35.90;;;2.90;71.60;;;;;;5053252;28;20108;-74
2021/04/29 02:35:37;;;;;;;53.20;25.50;;;2.90;71.50;;;;;;5053343;28;20028;-74
2021/04/29 02:38:03;;;;;;;75.93;34.47;;;2.90;71.90;;;;;;5071271;28;20017;-73
2021/04/29 02:40:30;;;;;;;88.22;43.70;;;2.80;73.10;;;;;;5056102;28;20053;-75
2021/04/29 02:42:56;;;;;;;52.33;24.20;;;2.80;72.60;;;;;;5053081;28;20106;-74
2021/04/29 02:45:22;;;;;;;35.17;16.38;;;2.80;72.20;;;;;;5053320;28;20033;-74
2021/04/29 02:47:50;;;;;;;32.25;17.90;;;2.80;72.40;;;;;;5055545;28;20024;-74
2021/04/29 02:50:19;;;;;;;36.20;16.83;;;2.90;73.10;;;;;;5055719;28;20029;-74
2021/04/29 02:52:46;;;;;;;41.58;20.95;;;2.90;72.80;;;;;;5053013;28;20021;-74
2021/04/29 02:55:13;;;;;;;31.00;15.80;;;2.90;73.30;;;;;;5053162;28;20017;-73
2021/04/29 02:57:39;;;;;;;38.53;19.20;;;3.00;73.10;;;;;;5052906;28;20056;-73
2021/04/29 03:00:11;;;;;;;43.10;21.40;;;3.00;73.30;;;;;;5053036;28;20429;-73
2021/04/29 03:02:39;;;;;;;39.10;19.73;;;3.00;74.00;;;;;;5052723;28;20504;-74
2021/04/29 03:05:07;;;;;;;38.28;19.83;;;3.00;73.90;;;;;;5052888;28;20024;-73
2021/04/29 03:07:33;;;;;;;41.80;21.17;;;2.90;75.10;;;;;;5052724;28;20540;-74
2021/04/29 03:09:58;;;;;;;42.88;19.08;;;2.90;75.80;;;;;;5051442;28;20028;-74
2021/04/29 03:12:24;;;;;;;41.88;19.05;;;3.00;76.00;;;;;;5052711;28;20051;-73
2021/04/29 03:14:50;;;;;;;38.28;19.38;;;2.90;76.80;;;;;;5052792;28;20017;-74
2021/04/29 03:17:15;;;;;;;34.85;16.98;;;3.00;77.10;;;;;;5051303;28;20112;-74
2021/04/29 03:19:41;;;;;;;29.60;17.30;;;3.00;77.80;;;;;;5052603;28;20064;-74
2021/04/29 03:22:07;;;;;;;56.65;23.33;;;3.10;78.10;;;;;;5052401;28;20036;-73
2021/04/29 03:24:33;;;;;;;33.95;17.00;;;3.10;78.60;;;;;;5064589;28;20024;-75
2021/04/29 03:26:58;;;;;;;39.35;17.02;;;3.20;78.70;;;;;;5072271;28;20486;-74
2021/04/29 03:29:24;;;;;;;37.63;17.95;;;3.20;79.00;;;;;;5072654;28;20031;-74
2021/04/29 03:31:49;;;;;;;38.15;18.75;;;3.30;79.10;;;;;;5072407;28;20450;-73
2021/04/29 03:34:15;;;;;;;33.38;17.58;;;3.30;78.70;;;;;;5071617;28;20039;-73
2021/04/29 03:36:41;;;;;;;41.88;21.67;;;3.40;78.50;;;;;;5072389;28;20486;-74
2021/04/29 03:39:06;;;;;;;17.75;10.63;;;3.50;79.10;;;;;;5070633;28;20036;-74
2021/04/29 03:41:32;;;;;;;25.13;12.60;;;3.60;77.80;;;;;;5072457;28;20417;-75
2021/04/29 03:43:58;;;;;;;27.88;13.25;;;3.80;77.40;;;;;;5072412;28;20494;-74
2021/04/29 03:46:24;;;;;;;40.88;20.02;;;3.90;76.00;;;;;;5072525;28;20033;-74
2021/04/29 03:48:49;;;;;;;17.98;9.85;;;3.90;76.90;;;;;;5071269;28;20474;-74
2021/04/29 03:51:15;;;;;;;15.93;9.63;;;4.10;73.80;;;;;;5072322;28;20571;-74
2021/04/29 03:53:41;;;;;;;15.43;8.60;;;4.20;72.50;;;;;;5073664;28;20028;-73
2021/04/29 03:56:06;;;;;;;18.17;10.27;;;4.50;72.10;;;;;;5076620;28;20382;-74
2021/04/29 03:58:32;;;;;;;27.42;11.13;;;4.70;70.60;;;;;;5075079;28;20032;-74
2021/04/29 04:00:57;;;;;;;18.45;11.00;;;4.80;71.20;;;;;;5076157;28;20025;-74
2021/04/29 04:03:23;;;;;;;29.13;11.90;;;4.80;70.20;;;;;;5076198;28;20154;-74
2021/04/29 04:05:49;;;;;;;27.17;13.82;;;4.80;70.70;;;;;;5074802;28;20016;-74
2021/04/29 04:08:14;;;;;;;18.98;12.05;;;4.70;71.70;;;;;;5075864;28;20378;-73
2021/04/29 04:10:40;;;;;;;15.60;8.93;;;4.70;71.20;;;;;;5075911;28;20072;-74
2021/04/29 04:13:06;;;;;;;16.15;9.18;;;4.90;68.80;;;;;;5075795;28;20035;-73
2021/04/29 04:15:31;;;;;;;23.50;12.27;;;5.00;68.10;;;;;;5075922;28;20031;-74
2021/04/29 04:17:57;;;;;;;23.67;11.27;;;5.10;68.20;;;;;;5075763;28;20016;-73
2021/04/29 04:20:23;;;;;;;25.10;11.57;;;5.00;70.90;;;;;;5075882;28;20024;-75
2021/04/29 04:22:49;;;;;;;27.75;11.95;;;5.00;72.00;;;;;;5074428;28;20493;-73
2021/04/29 04:25:15;;;;;;;34.88;12.00;;;5.00;73.60;;;;;;5074267;28;20012;-75
2021/04/29 04:27:41;;;;;;;28.70;12.07;;;5.00;74.80;;;;;;5075717;28;20026;-73
2021/04/29 04:30:07;;;;;;;27.38;11.57;;;5.00;75.50;;;;;;5075528;28;20103;-74
2021/04/29 04:32:33;;;;;;;30.70;12.10;;;5.10;74.60;;;;;;5075341;28;20027;-73
2021/04/29 04:35:01;;;;;;;32.00;12.15;;;5.20;76.50;;;;;;5074392;28;20028;-74
2021/04/29 04:37:26;;;;;;;29.77;11.80;;;5.20;76.30;;;;;;5074129;28;20482;-74
2021/04/29 04:39:52;;;;;;;32.03;14.10;;;5.30;76.20;;;;;;5074067;28;20024;-74
2021/04/29 04:42:18;;;;;;;41.83;17.88;;;5.40;78.60;;;;;;5074069;28;20097;-74
2021/04/29 04:44:43;;;;;;;33.03;16.13;;;5.40;81.70;;;;;;5074628;28;20073;-74
2021/04/29 04:47:09;;;;;;;41.03;16.23;;;5.40;84.00;;;;;;5074042;28;20043;-73
2021/04/29 04:49:35;;;;;;;20.70;11.77;;;5.50;82.20;;;;;;5075224;28;20033;-74
2021/04/29 04:52:00;;;;;;;23.58;12.23;;;5.60;77.50;;;;;;5065949;28;20029;-73
2021/04/29 04:54:27;;;;;;;30.17;13.25;;;5.70;77.20;;;;;;5075207;28;20017;-74
2021/04/29 04:56:53;;;;;;;40.72;14.70;;;5.90;82.80;;;;;;5073883;28;20394;-73
2021/04/29 04:59:19;;;;;;;26.25;13.07;;;6.00;82.80;;;;;;5075428;28;20038;-73
2021/04/29 05:01:44;;;;;;;18.35;11.18;;;6.20;78.80;;;;;;5074931;28;20043;-73
2021/04/29 05:04:10;;;;;;;26.10;12.85;;;6.40;75.50;;;;;;5073544;28;20490;-74
2021/04/29 05:06:36;;;;;;;22.58;12.13;;;6.60;74.70;;;;;;5074363;28;20028;-73
2021/04/29 05:09:04;;;;;;;25.65;12.77;;;6.80;78.10;;;;;;5074703;28;20020;-74
2021/04/29 05:11:30;;;;;;;23.77;12.82;;;7.00;79.30;;;;;;5064995;28;20036;-74
2021/04/29 05:13:56;;;;;;;34.42;13.13;;;7.20;80.70;;;;;;5054614;28;20040;-74
2021/04/29 05:16:21;;;;;;;21.20;9.95;;;7.30;82.30;;;;;;5064926;28;20364;-74
2021/04/29 05:18:47;;;;;;;25.55;11.73;;;7.50;71.40;;;;;;5055537;28;20052;-73
2021/04/29 05:21:13;;;;;;;27.05;14.82;;;7.70;74.60;;;;;;5054148;28;20018;-75
2021/04/29 05:23:39;;;;;;;15.35;9.77;;;7.80;75.00;;;;;;5054376;28;20025;-74
2021/04/29 05:26:04;;;;;;;19.95;9.85;;;8.10;65.40;;;;;;5054483;28;20024;-75
2021/04/29 05:28:30;;;;;;;16.75;9.70;;;8.20;64.10;;;;;;5053128;28;20029;-73
2021/04/29 05:30:56;;;;;;;18.02;9.95;;;8.40;63.10;;;;;;5052967;28;20517;-75
2021/04/29 05:33:21;;;;;;;17.70;10.13;;;8.50;62.30;;;;;;5052890;28;20471;-73
2021/04/29 05:35:47;;;;;;;27.48;10.98;;;8.70;61.60;;;;;;5053968;28;20036;-73
2021/04/29 05:38:13;;;;;;;20.20;10.65;;;8.80;61.70;;;;;;5053783;28;20033;-73
2021/04/29 05:40:39;;;;;;;18.40;10.48;;;8.90;60.10;;;;;;5054140;28;20082;-73
2021/04/29 05:43:05;;;;;;;15.00;8.80;;;9.00;59.30;;;;;;5052737;28;20013;-73
2021/04/29 05:45:31;;;;;;;14.90;10.82;;;9.10;59.30;;;;;;5053990;28;20074;-74
2021/04/29 05:47:56;;;;;;;16.52;9.88;;;9.20;59.30;;;;;;5052973;28;20025;-74
2021/04/29 05:50:22;;;;;;;15.45;9.20;;;9.30;59.00;;;;;;5053541;28;20040;-74
2021/04/29 05:52:48;;;;;;;15.20;9.05;;;9.30;58.00;;;;;;5050470;28;20021;-74
2021/04/29 05:55:14;;;;;;;15.52;9.15;;;9.40;57.20;;;;;;5052668;28;20017;-73
2021/04/29 05:57:39;;;;;;;15.38;8.27;;;9.40;58.10;;;;;;5068344;28;20052;-73
2021/04/29 06:00:07;;;;;;;13.68;8.35;;;9.40;57.80;;;;;;5072680;28;20051;-74
2021/04/29 06:02:32;;;;;;;15.35;9.10;;;9.40;58.00;;;;;;5066889;28;20143;-74
2021/04/29 06:04:58;;;;;;;17.98;8.52;;;9.40;57.80;;;;;;5072323;28;20123;-74
2021/04/29 06:07:24;;;;;;;18.98;8.70;;;9.40;57.80;;;;;;5068722;28;20044;-73
2021/04/29 06:09:49;;;;;;;14.25;8.95;;;9.40;57.50;;;;;;5053757;28;20029;-74
2021/04/29 06:12:15;;;;;;;17.70;9.05;;;9.40;57.70;;;;;;5073130;28;20436;-73
2021/04/29 06:14:41;;;;;;;18.90;9.55;;;9.40;57.40;;;;;;5061426;28;20028;-74
2021/04/29 06:17:07;;;;;;;15.43;9.18;;;9.50;58.00;;;;;;5069976;28;20390;-74
2021/04/29 06:19:32;;;;;;;16.42;8.40;;;9.50;57.60;;;;;;5071429;28;20492;-74
2021/04/29 06:21:58;;;;;;;16.30;7.68;;;9.60;57.50;;;;;;5070717;28;20061;-73
2021/04/29 06:24:24;;;;;;;15.52;9.02;;;9.70;57.20;;;;;;5056138;28;20511;-73
2021/04/29 06:26:50;;;;;;;20.63;9.32;;;9.80;57.50;;;;;;5062397;28;20021;-73
2021/04/29 06:29:15;;;;;;;13.73;8.18;;;9.90;57.00;;;;;;5064399;28;20024;-74
2021/04/29 06:31:44;;;;;;;14.27;7.95;;;10.00;56.50;;;;;;5072405;28;20033;-72
2021/04/29 06:34:09;;;;;;;11.35;6.57;;;10.10;56.00;;;;;;5071131;28;20446;-73
2021/04/29 06:36:35;;;;;;;12.98;7.95;;;10.20;55.60;;;;;;5069409;28;20242;-74
2021/04/29 06:39:01;;;;;;;11.85;7.55;;;10.30;55.50;;;;;;5071404;28;20397;-73
2021/04/29 06:41:27;;;;;;;15.07;8.20;;;10.40;55.90;;;;;;5070405;28;20028;-75
2021/04/29 06:43:53;;;;;;;14.30;7.03;;;10.50;55.50;;;;;;5070762;28;20500;-74
2021/04/29 06:46:18;;;;;;;17.42;8.68;;;10.70;54.80;;;;;;5070810;28;20031;-74
2021/04/29 06:48:44;;;;;;;11.65;6.38;;;10.80;54.30;;;;;;5072511;28;20020;-74
2021/04/29 06:51:10;;;;;;;18.20;7.70;;;11.00;54.20;;;;;;5071501;28;20024;-74
2021/04/29 06:53:35;;;;;;;11.52;6.72;;;11.20;54.40;;;;;;5071234;28;20482;-74
2021/04/29 06:56:01;;;;;;;13.55;7.13;;;11.40;52.50;;;;;;5071170;28;20024;-73
2021/04/29 06:58:28;;;;;;;13.45;6.85;;;11.60;51.80;;;;;;5072826;28;20035;-72
2021/04/29 07:00:54;;;;;;;8.18;5.70;;;11.70;51.40;;;;;;5072647;28;20028;-73
2021/04/29 07:03:20;;;;;;;9.77;6.15;;;11.80;50.70;;;;;;5072546;28;20078;-73
2021/04/29 07:05:46;;;;;;;15.45;7.10;;;11.90;50.10;;;;;;5072471;28;20043;-73
2021/04/29 07:08:13;;;;;;;9.75;6.30;;;12.00;49.70;;;;;;5070979;28;20032;-71
2021/04/29 07:10:38;;;;;;;9.25;6.53;;;12.10;49.80;;;;;;5072461;28;20502;-71
2021/04/29 07:13:05;;;;;;;11.25;6.68;;;12.20;48.90;;;;;;5066517;28;20048;-72
2021/04/29 07:15:31;;;;;;;9.45;6.63;;;12.20;48.40;;;;;;5069168;28;20423;-71
2021/04/29 07:18:01;;;;;;;16.25;7.72;;;12.30;48.60;;;;;;5064897;28;20020;-72
2021/04/29 07:20:29;;;;;;;15.35;7.20;;;12.30;49.10;;;;;;5060309;28;20389;-72
2021/04/29 07:22:56;;;;;;;11.13;6.78;;;12.40;49.00;;;;;;5059781;28;20013;-71
2021/04/29 07:25:23;;;;;;;12.50;7.15;;;12.50;48.90;;;;;;5062137;28;20503;-72
2021/04/29 07:27:50;;;;;;;17.20;7.93;;;12.50;49.30;;;;;;5059371;28;20025;-72
2021/04/29 07:30:15;;;;;;;11.63;7.32;;;12.70;49.60;;;;;;5060536;28;20024;-72
2021/04/29 07:32:41;;;;;;;12.95;7.05;;;12.70;49.30;;;;;;5061549;28;20036;-71
2021/04/29 07:35:07;;;;;;;16.63;7.85;;;12.80;49.30;;;;;;5065671;28;20028;-73
2021/04/29 07:37:33;;;;;;;11.20;7.20;;;13.00;49.50;;;;;;5061517;28;20508;-72
2021/04/29 07:39:58;;;;;;;15.20;8.20;;;13.00;48.40;;;;;;5059943;28;20060;-72
2021/04/29 07:42:24;;;;;;;13.80;8.38;;;13.00;48.30;;;;;;5061765;28;20031;-72
2021/04/29 07:44:50;;;;;;;15.50;8.05;;;13.10;48.20;;;;;;5060984;28;20382;-72
2021/04/29 07:47:15;;;;;;;27.30;10.00;;;13.10;48.40;;;;;;5060516;28;20032;-72
2021/04/29 07:49:41;;;;;;;12.00;6.93;;;13.10;49.20;;;;;;5061865;28;20027;-72
2021/04/29 07:52:06;;;;;;;12.48;7.13;;;13.20;49.00;;;;;;5060206;28;20052;-72
2021/04/29 07:54:32;;;;;;;10.20;6.55;;;13.20;48.80;;;;;;5061281;28;20087;-73
2021/04/29 07:56:58;;;;;;;10.15;6.60;;;13.20;47.90;;;;;;5065525;28;20032;-72
2021/04/29 07:59:24;;;;;;;13.02;7.57;;;13.30;48.60;;;;;;5058290;28;20058;-72
2021/04/29 08:01:50;;;;;;;13.60;7.18;;;13.40;47.60;;;;;;5062090;28;20029;-72
2021/04/29 08:04:16;;;;;;;8.40;5.85;;;13.50;46.40;;;;;;5052948;28;20067;-71
2021/04/29 08:06:42;;;;;;;8.88;4.75;;;13.60;45.70;;;;;;5061146;28;20031;-72
2021/04/29 08:09:08;;;;;;;9.02;6.22;;;13.90;44.00;;;;;;5059807;28;20043;-72
2021/04/29 08:11:34;;;;;;;9.20;5.22;;;14.20;44.60;;;;;;5060116;28;20037;-72
2021/04/29 08:13:59;;;;;;;7.70;5.55;;;14.40;43.80;;;;;;5059982;28;20067;-72
2021/04/29 08:16:25;;;;;;;9.48;5.20;;;14.60;43.50;;;;;;5055916;28;20441;-73
2021/04/29 08:18:51;;;;;;;6.88;4.80;;;14.90;42.80;;;;;;5058676;28;20370;-72
2021/04/29 08:21:17;;;;;;;10.73;4.72;;;15.00;41.80;;;;;;5057794;28;20013;-72
2021/04/29 08:23:42;;;;;;;6.68;3.70;;;15.10;41.70;;;;;;5056993;28;20038;-72
2021/04/29 08:26:08;;;;;;;6.65;3.65;;;15.20;40.20;;;;;;5057611;28;20435;-72
2021/04/29 08:28:34;;;;;;;9.50;4.35;;;15.50;39.40;;;;;;5057070;28;20021;-72
2021/04/29 08:31:00;;;;;;;9.38;5.32;;;15.60;38.00;;;;;;5069058;28;20117;-72
2021/04/29 08:33:25;;;;;;;5.32;3.72;;;15.60;37.40;;;;;;5057279;28;20040;-72
2021/04/29 08:35:51;;;;;;;17.88;9.10;;;15.80;37.00;;;;;;5051490;28;20103;-72
2021/04/29 08:38:17;;;;;;;13.98;7.78;;;16.00;36.80;;;;;;5050891;28;20116;-73
2021/04/29 08:40:43;;;;;;;8.80;5.80;;;16.20;36.80;;;;;;5053828;28;20489;-72
2021/04/29 08:43:08;;;;;;;10.52;6.03;;;16.30;36.30;;;;;;5064479;28;20409;-73
2021/04/29 08:45:34;;;;;;;17.40;10.60;;;16.40;36.30;;;;;;5075151;28;20029;-73
2021/04/29 08:48:00;;;;;;;12.00;7.07;;;16.50;36.10;;;;;;5072949;28;20473;-72
2021/04/29 08:50:28;;;;;;;6.97;5.35;;;16.40;35.90;;;;;;5059144;28;20028;-72
2021/04/29 08:52:54;;;;;;;7.80;5.60;;;16.40;36.20;;;;;;5072416;28;20478;-73
2021/04/29 08:55:28;;;;;;;6.18;3.88;;;16.50;36.80;;;;;;5068336;28;20474;-73
2021/04/29 08:57:54;;;;;;;4.25;3.80;;;16.60;36.10;;;;;;5073063;28;20041;-72
2021/04/29 09:00:22;;;;;;;3.63;2.85;;;16.70;35.80;;;;;;5067048;28;20078;-74
2021/04/29 09:02:49;;;;;;;8.15;3.78;;;16.80;35.80;;;;;;5074261;28;20017;-72
2021/04/29 09:05:15;;;;;;;3.80;2.92;;;17.00;36.20;;;;;;5059550;28;20033;-73
2021/04/29 09:07:52;;;;;;;5.78;3.42;;;17.10;36.50;;;;;;5054746;28;20371;-73
2021/04/29 09:10:32;;;;;;;5.85;3.85;;;17.00;35.20;;;;;;5052960;28;20032;-74
2021/04/29 09:13:00;;;;;;;3.97;3.28;;;17.20;35.50;;;;;;5054094;28;20023;-73
2021/04/29 09:15:33;;;;;;;5.45;3.67;;;17.50;35.40;;;;;;5061477;28;20035;-73
2021/04/29 09:18:15;;;;;;;6.82;4.13;;;17.90;38.40;;;;;;5061312;28;20119;-72
2021/04/29 09:21:02;;;;;;;3.93;2.90;;;18.10;38.90;;;;;;5061509;28;20025;-73
2021/04/29 09:23:30;;;;;;;4.03;3.28;;;18.10;36.80;;;;;;5063320;28;20495;-73
2021/04/29 09:25:59;;;;;;;4.70;3.17;;;18.30;39.20;;;;;;5063861;28;20020;-73
2021/04/29 09:28:51;;;;;;;6.28;3.92;;;18.60;41.20;;;;;;5064851;28;20024;-73
2021/04/29 09:31:23;;;;;;;6.35;3.33;;;18.70;41.00;;;;;;5072144;28;20032;-73
2021/04/29 09:33:51;;;;;;;5.35;3.28;;;18.90;40.40;;;;;;5071779;28;20116;-73
2021/04/29 09:36:32;;;;;;;4.28;2.92;;;18.80;39.00;;;;;;5073147;28;20528;-73
2021/04/29 09:39:05;;;;;;;4.93;3.22;;;18.60;39.20;;;;;;5071973;28;20024;-73
2021/04/29 09:41:33;;;;;;;3.63;3.15;;;18.70;39.50;;;;;;5072453;28;20481;-73
2021/04/29 09:44:01;;;;;;;4.93;3.28;;;18.60;39.50;;;;;;5073101;28;20078;-73
2021/04/29 09:46:45;;;;;;;10.70;4.10;;;18.70;40.30;;;;;;5071821;28;20039;-73
2021/04/29 09:49:23;;;;;;;8.43;4.20;;;19.00;41.10;;;;;;5071206;28;20101;-73
2021/04/29 09:51:50;;;;;;;4.13;3.33;;;19.10;41.30;;;;;;5071387;28;20040;-73
2021/04/29 09:54:32;;;;;;;9.93;5.00;;;19.30;41.10;;;;;;5073018;28;20020;-74
2021/04/29 09:57:04;;;;;;;7.25;3.70;;;19.30;40.90;;;;;;5070852;28;20024;-72
2021/04/29 09:59:32;;;;;;;9.65;5.20;;;19.40;40.70;;;;;;5067872;28;20060;-73
2021/04/29 10:01:59;;;;;;;30.27;11.93;;;19.30;41.50;;;;;;5070275;28;20025;-73
2021/04/29 10:04:28;;;;;;;50.10;17.05;;;19.20;42.20;;;;;;5072736;28;20031;-73
2021/04/29 10:06:55;;;;;;;8.68;4.95;;;18.90;42.90;;;;;;5072068;28;20476;-72
2021/04/29 10:09:26;;;;;;;39.75;13.30;;;18.90;43.20;;;;;;5072151;28;20477;-73
2021/04/29 10:11:56;;;;;;;7.68;5.30;;;18.80;44.00;;;;;;5070650;28;20043;-73
2021/04/29 10:14:25;;;;;;;12.55;5.20;;;18.70;44.60;;;;;;5072715;28;20126;-73
2021/04/29 10:16:51;;;;;;;21.63;7.03;;;18.70;45.40;;;;;;5071151;28;20028;-74
2021/04/29 10:19:17;;;;;;;10.40;5.50;;;18.60;45.60;;;;;;5070916;28;20390;-73
2021/04/29 10:21:44;;;;;;;13.77;6.55;;;18.60;46.40;;;;;;5069686;28;20024;-73
2021/04/29 10:24:10;;;;;;;12.20;5.95;;;18.60;46.60;;;;;;5069126;28;20016;-73
2021/04/29 10:26:38;;;;;;;18.23;7.47;;;18.80;46.70;;;;;;5069868;28;20559;-73
2021/04/29 10:29:05;;;;;;;18.02;7.88;;;19.00;47.00;;;;;;5071263;28;20034;-73
2021/04/29 10:31:35;;;;;;;10.70;5.10;;;19.00;46.40;;;;;;5069968;28;20051;-73
2021/04/29 10:34:08;;;;;;;10.63;5.35;;;19.00;46.00;;;;;;5069276;28;20138;-75
2021/04/29 10:36:43;;;;;;;11.95;6.10;;;19.00;46.00;;;;;;5069269;28;20516;-72
2021/04/29 10:39:16;;;;;;;10.18;5.70;;;18.70;46.30;;;;;;5069177;28;20021;-72
2021/04/29 10:41:45;;;;;;;25.77;9.77;;;18.50;47.60;;;;;;5070827;28;20025;-73
2021/04/29 10:44:12;;;;;;;31.88;15.95;;;18.60;48.70;;;;;;5069843;28;20035;-74
2021/04/29 10:46:39;;;;;;;176.65;68.53;;;18.50;48.80;;;;;;5071197;28;20024;-72
2021/04/29 10:49:06;;;;;;;197.13;79.28;;;18.30;48.20;;;;;;5070395;28;20112;-73
2021/04/29 10:51:44;;;;;;;47.35;19.35;;;18.30;49.10;;;;;;5069674;28;20043;-72
2021/04/29 10:54:20;;;;;;;21.25;9.32;;;18.20;49.00;;;;;;5072230;28;20078;-72
2021/04/29 10:57:04;;;;;;;38.42;12.15;;;18.30;49.70;;;;;;5066692;28;20028;-73
2021/04/29 11:00:05;;;;;;;17.95;7.88;;;18.30;50.00;;;;;;5070237;28;20435;-72
2021/04/29 11:02:36;;;;;;;20.88;8.45;;;18.30;50.10;;;;;;5071400;28;20062;-73
2021/04/29 11:05:05;;;;;;;17.95;6.90;;;18.30;50.20;;;;;;5070696;28;20035;-72
2021/04/29 11:07:31;;;;;;;18.38;7.50;;;18.30;49.90;;;;;;5069273;28;20394;-72
2021/04/29 11:09:59;;;;;;;13.32;7.85;;;18.40;50.20;;;;;;5071016;28;20040;-73
2021/04/29 11:12:39;;;;;;;23.27;10.98;;;18.50;50.70;;;;;;5071484;28;20025;-72
2021/04/29 11:15:17;;;;;;;22.35;10.52;;;18.30;50.40;;;;;;5070326;28;20017;-72
2021/04/29 11:17:43;;;;;;;13.98;8.02;;;18.10;50.60;;;;;;5069109;28;20036;-72
2021/04/29 11:20:09;;;;;;;24.27;9.98;;;18.10;50.80;;;;;;5071479;28;20032;-73
2021/04/29 11:22:37;;;;;;;17.02;9.88;;;18.00;51.20;;;;;;5071143;28;20031;-72
2021/04/29 11:25:09;;;;;;;24.83;12.13;;;18.10;51.60;;;;;;5070966;28;20028;-74
2021/04/29 11:27:38;;;;;;;22.52;11.20;;;18.00;51.20;;;;;;5062017;28;20029;-73
2021/04/29 11:30:07;;;;;;;14.63;8.48;;;18.00;51.50;;;;;;5059753;28;20047;-73
2021/04/29 11:32:35;;;;;;;12.52;7.20;;;18.00;52.00;;;;;;5062551;28;20025;-73
2021/04/29 11:35:23;;;;;;;14.02;6.93;;;18.00;52.20;;;;;;5062007;28;20105;-73
2021/04/29 11:37:49;;;;;;;19.27;7.47;;;18.00;52.60;;;;;;5069652;28;20474;-72
2021/04/29 11:40:15;;;;;;;12.32;6.78;;;17.90;52.00;;;;;;5065414;28;20098;-74
2021/04/29 11:42:48;;;;;;;11.98;6.78;;;18.10;52.20;;;;;;5068334;28;20367;-73
2021/04/29 11:45:21;;;;;;;10.43;5.75;;;18.10;52.00;;;;;;5070539;28;20025;-73
2021/04/29 11:47:57;;;;;;;10.75;5.97;;;18.20;53.30;;;;;;5068733;28;20390;-73
2021/04/29 11:50:34;;;;;;;12.48;6.63;;;18.30;52.00;;;;;;5057714;28;20036;-73
2021/04/29 11:53:07;;;;;;;15.10;6.53;;;18.50;51.40;;;;;;5066514;28;20024;-73
2021/04/29 11:55:33;;;;;;;10.07;5.07;;;18.60;50.90;;;;;;5066835;28;20117;-73
2021/04/29 11:58:10;;;;;;;12.32;6.57;;;19.00;50.70;;;;;;5070718;28;20036;-73
2021/04/29 12:00:38;;;;;;;9.77;5.45;;;19.30;50.30;;;;;;5068600;28;20027;-73
2021/04/29 12:03:07;;;;;;;8.75;5.45;;;19.40;49.60;;;;;;5057923;28;20016;-73
2021/04/29 12:05:36;;;;;;;13.23;6.32;;;19.30;48.50;;;;;;5060294;28;20366;-73
2021/04/29 12:08:03;;;;;;;7.90;5.45;;;19.00;48.70;;;;;;5061038;28;20482;-73
2021/04/29 12:11:05;;;;;;;27.85;14.82;;;18.80;49.10;;;;;;5066841;28;20498;-73
2021/04/29 12:13:41;;;;;;;12.00;5.80;;;18.70;49.70;;;;;;5030302;28;20041;-73
2021/04/29 12:16:08;;;;;;;12.05;6.00;;;18.80;50.10;;;;;;5068295;28;20021;-73
2021/04/29 12:18:39;;;;;;;13.77;7.47;;;18.90;49.40;;;;;;5072582;28;20036;-73
2021/04/29 12:21:06;;;;;;;11.80;5.70;;;19.10;49.40;;;;;;5073967;28;20122;-73
2021/04/29 12:23:32;;;;;;;11.18;6.35;;;19.30;49.70;;;;;;5073587;28;20032;-73
2021/04/29 12:26:03;;;;;;;17.25;6.68;;;19.70;49.50;;;;;;5074477;28;20048;-74
2021/04/29 12:28:36;;;;;;;12.13;6.60;;;19.90;48.80;;;;;;5073715;28;20062;-73
2021/04/29 12:31:16;;;;;;;9.95;6.03;;;20.20;48.40;;;;;;5071781;28;20043;-73
2021/04/29 12:34:09;;;;;;;9.68;6.15;;;19.90;46.60;;;;;;5071179;28;20537;-73
2021/04/29 12:36:54;;;;;;;8.52;5.28;;;19.70;47.30;;;;;;5071606;28;20021;-73
2021/04/29 12:39:22;;;;;;;11.43;6.22;;;19.50;47.00;;;;;;5069487;28;20032;-73
2021/04/29 12:41:55;;;;;;;11.55;6.78;;;19.60;47.70;;;;;;5070690;28;20025;-73
2021/04/29 12:44:43;;;;;;;12.40;6.43;;;19.70;47.70;;;;;;5073544;28;20025;-74